KAVLKFFC

Guest
Details From KAVL - Asheville Rgnl
To KFFC - Atlanta Peachtree City Falcon Fld
Flight Number -
Tags generated
Created
Modified
Stats Distance 160 nm / 297 km
Max Altitude 20,600 ft / 6,279 m
Waypoints 3
Social Downloads 0
Likes 0
Share VATSIM

Download

Looking for another format? Having issues loading an existing format? Contact us
Advertisement - Login to hide

Notes

Basic altitude profile: - Ascent Rate: 2500ft/min - Ascent Speed: 250kts - Cruise Altitude: 35000ft - Cruise Speed: 420kts - Descent Rate: 1500ft/min - Descent Speed: 250kts Options: - Use NATs: yes - Use PACOTS: yes - Use low airways: yes - Use high airways: yes

Route

KAVL ODF KFFC

ID Type Via Altitude Latitude Longitude Leg Dist Tot Dist Heading (true) Name
O KAVL APT - 0 ft / 0 m 35.43618˚ -82.54181˚ - 0 nm - Asheville Rgnl
ODF VOR - 20,600 ft / 6,279 m 34.69586˚ -83.29767˚ 57 nm 57 nm 220° / 220° FOOTHILLS VORTAC
O KFFC APT - 0 ft / 0 m 33.35725˚ -84.57183˚ 102 nm 160 nm 219° / 218° Atlanta Peachtree City Falcon Fld

Altitude Profile

Advertisement - Login to hide

KAVL

Details ICAO KAVL (AVL)
Name Asheville Rgnl
Region United States
Timezone America/New_York (UTC-5.0)
Stats Elevation 2,165 ft / 660 m (AMSL)
Location 35.436182° -82.541812°
Runways 1
Magnetic Variation 6.655° W

METAR

KAVL 181654Z VRB03KT 10SM CLR 12/07 A3014 RMK AO2 SLP203 T01170072

Decode

TAF

KAVL 181609Z 1816/1912 18003KT P6SM OVC005 TEMPO 1816/1817 SCT005 BKN012 FM181700 34007G16KT P6SM BKN070 FM190200 34007KT P6SM BKN250 FM190600 33006KT P6SM SCT250 WS020/29035KT

Decode

Departure Runways

ID Width Length Bearing (true) Bearing (mag) Surface Threshold Offset Overrun Length
16 151 ft / 46 m 8,015 ft / 2,443 m 159.91° 166.57° Asphalt 0 ft / 0 m 200 ft / 61 m
34 151 ft / 46 m 8,015 ft / 2,443 m 339.91° 346.57° Asphalt 0 ft / 0 m 200 ft / 61 m

KFFC

Details ICAO KFFC (FFC)
Name Atlanta Peachtree City Falcon Fld
Region United States
Timezone America/New_York (UTC-5.0)
Stats Elevation 808 ft / 246 m (AMSL)
Location 33.357246° -84.571831°
Runways 1
Magnetic Variation 4.958° W

METAR

KFFC 181653Z AUTO 00000KT 7SM CLR 14/12 A3021 RMK AO2 SLP232 T01440117

Decode

TAF

Not found

Destination Runways

ID Width Length Bearing (true) Bearing (mag) Surface Threshold Offset Overrun Length
13 100 ft / 30 m 5,223 ft / 1,592 m 128.27° 133.23° Asphalt 0 ft / 0 m 0 ft / 0 m
31 100 ft / 30 m 5,223 ft / 1,592 m 308.27° 313.23° Asphalt 0 ft / 0 m 0 ft / 0 m

Approach Navaids

Runway Type Ident Frequency Range Bearing (true) Bearing (mag) Slope Elevation
31 Localiser FFC 111.95 MHz 18 nm / 33 km 308.29° 313.24° - 808 ft / 246 m (AMSL)
31 DME FFC 111.95 MHz 18 nm / 33 km - - - 808 ft / 246 m (AMSL)